Time;durP1;ratioP1;P1;durP2;ratioP2;P2;SDS_P1;SDS_P2;PMS_P1;PMS_P2;Temp;Humidity;BMP_temperature;BMP_pressure;BME280_temperature;BME280_humidity;BME280_pressure;Samples;Min_cycle;Max_cycle;Signal;HPM_P1;HPM_P2
2021/06/28 00:02:12;;;;;;;4.28;3.70;;;19.80;96.80;;;;;;5033447;28;20029;-67
2021/06/28 00:04:38;;;;;;;4.25;3.60;;;19.70;96.80;;;;;;5035463;28;20025;-67
2021/06/28 00:07:03;;;;;;;3.55;3.17;;;19.70;96.90;;;;;;5034869;28;20505;-67
2021/06/28 00:09:29;;;;;;;4.68;3.40;;;19.70;97.00;;;;;;5036521;28;20021;-67
2021/06/28 00:11:54;;;;;;;4.45;3.30;;;19.70;97.00;;;;;;5034327;28;20075;-67
2021/06/28 00:14:20;;;;;;;4.22;3.38;;;19.80;97.00;;;;;;5033944;28;20025;-67
2021/06/28 00:16:46;;;;;;;4.40;3.40;;;19.80;97.00;;;;;;5033955;28;20024;-67
2021/06/28 00:19:11;;;;;;;4.22;3.53;;;19.70;97.00;;;;;;5033028;28;20502;-67
2021/06/28 00:21:39;;;;;;;3.95;3.00;;;19.70;97.00;;;;;;5035241;28;20437;-67
2021/06/28 00:24:06;;;;;;;5.32;3.53;;;19.70;97.00;;;;;;5033787;28;20026;-67
2021/06/28 00:26:31;;;;;;;5.60;3.88;;;19.70;97.10;;;;;;5036214;28;20499;-67
2021/06/28 00:28:57;;;;;;;4.65;4.13;;;19.70;97.10;;;;;;5031093;28;20114;-67
2021/06/28 00:31:23;;;;;;;5.50;3.58;;;19.70;97.20;;;;;;5035181;28;20112;-67
2021/06/28 00:33:48;;;;;;;3.90;3.50;;;19.60;97.20;;;;;;5035400;28;20032;-67
2021/06/28 00:36:14;;;;;;;4.43;3.97;;;19.70;97.30;;;;;;5032884;28;20027;-68
2021/06/28 00:38:39;;;;;;;6.30;4.28;;;19.60;97.30;;;;;;5033040;28;20044;-67
2021/06/28 00:41:05;;;;;;;5.13;4.60;;;19.60;97.40;;;;;;5033005;28;20508;-67
2021/06/28 00:43:30;;;;;;;5.00;4.53;;;19.60;97.90;;;;;;5044896;28;20525;-67
2021/06/28 00:45:56;;;;;;;5.43;4.88;;;19.50;97.70;;;;;;5032680;28;20056;-67
2021/06/28 00:48:21;;;;;;;5.28;4.68;;;19.50;97.80;;;;;;5033709;28;20022;-67
2021/06/28 00:50:53;;;;;;;5.18;4.18;;;19.40;97.90;;;;;;5036390;28;20025;-67
2021/06/28 00:53:21;;;;;;;4.65;4.20;;;19.40;97.90;;;;;;5032864;28;20026;-67
2021/06/28 00:55:48;;;;;;;5.20;4.70;;;19.30;98.00;;;;;;5034749;28;20104;-67
2021/06/28 00:58:14;;;;;;;5.05;4.55;;;19.30;98.00;;;;;;5033292;28;20032;-67
2021/06/28 01:00:40;;;;;;;4.63;4.22;;;19.30;98.10;;;;;;5031478;28;20018;-67
2021/06/28 01:03:06;;;;;;;4.45;4.00;;;19.30;98.10;;;;;;5032561;28;20413;-67
2021/06/28 01:05:34;;;;;;;5.10;3.72;;;19.30;98.10;;;;;;5033409;28;20906;-67
2021/06/28 01:08:01;;;;;;;3.92;3.55;;;19.30;98.00;;;;;;5036576;28;20389;-67
2021/06/28 01:10:27;;;;;;;4.20;3.83;;;19.30;98.00;;;;;;5033848;28;20111;-67
2021/06/28 01:12:53;;;;;;;4.72;4.32;;;19.30;98.00;;;;;;5034750;28;20525;-67
2021/06/28 01:15:20;;;;;;;5.22;4.72;;;19.30;98.00;;;;;;5032894;28;20470;-67
2021/06/28 01:17:46;;;;;;;4.88;4.47;;;19.20;98.10;;;;;;5032861;28;20017;-67
2021/06/28 01:20:18;;;;;;;4.97;4.05;;;19.20;98.20;;;;;;5034942;28;20513;-67
2021/06/28 01:22:46;;;;;;;5.57;3.75;;;19.20;98.20;;;;;;5037488;28;20029;-67
2021/06/28 01:25:14;;;;;;;3.75;3.40;;;19.20;98.20;;;;;;5040255;28;20049;-67
2021/06/28 01:27:40;;;;;;;4.70;3.22;;;19.20;98.20;;;;;;5037783;28;20381;-67
2021/06/28 01:30:09;;;;;;;4.60;3.63;;;19.20;98.20;;;;;;5036028;28;20681;-67
2021/06/28 01:32:35;;;;;;;4.30;3.90;;;19.10;98.10;;;;;;5036959;28;20102;-67
2021/06/28 01:35:01;;;;;;;3.67;3.25;;;19.10;98.20;;;;;;5037942;28;20017;-67
2021/06/28 01:37:28;;;;;;;3.95;3.40;;;19.10;98.20;;;;;;5039027;28;20033;-67
2021/06/28 01:39:57;;;;;;;3.78;3.38;;;19.10;98.20;;;;;;5037184;28;20071;-67
2021/06/28 01:42:24;;;;;;;3.55;3.13;;;19.10;98.20;;;;;;5037583;28;20377;-67
2021/06/28 01:44:51;;;;;;;3.08;2.78;;;19.00;98.20;;;;;;5035780;28;20175;-67
2021/06/28 01:47:17;;;;;;;3.88;3.47;;;19.00;98.20;;;;;;5035687;28;20366;-67
2021/06/28 01:49:43;;;;;;;3.92;3.42;;;19.10;98.20;;;;;;5037860;28;20036;-67
2021/06/28 01:52:09;;;;;;;4.22;3.60;;;19.00;98.10;;;;;;5037575;28;20026;-67
2021/06/28 01:54:35;;;;;;;3.67;3.10;;;19.00;98.10;;;;;;5038863;28;20014;-67
2021/06/28 01:57:01;;;;;;;4.25;2.92;;;19.00;98.10;;;;;;5036825;28;20030;-67
2021/06/28 01:59:32;;;;;;;3.28;2.97;;;19.00;98.10;;;;;;5037020;28;20499;-67
2021/06/28 02:01:59;;;;;;;3.45;3.10;;;19.00;98.10;;;;;;5035823;28;20034;-67
2021/06/28 02:04:26;;;;;;;3.35;2.92;;;18.90;98.10;;;;;;5036814;28;20432;-67
2021/06/28 02:06:53;;;;;;;3.03;2.72;;;19.00;98.10;;;;;;5039467;28;20112;-68
2021/06/28 02:09:19;;;;;;;3.30;3.00;;;18.90;98.10;;;;;;5038285;28;20028;-68
2021/06/28 02:11:46;;;;;;;3.15;2.83;;;18.90;98.10;;;;;;5036538;28;20026;-67
2021/06/28 02:14:11;;;;;;;3.92;2.97;;;18.90;98.20;;;;;;5035185;28;20026;-67
2021/06/28 02:16:37;;;;;;;3.63;2.90;;;18.90;98.20;;;;;;5035472;28;20059;-67
2021/06/28 02:19:02;;;;;;;3.75;3.35;;;18.80;98.20;;;;;;5035466;28;20050;-67
2021/06/28 02:21:28;;;;;;;3.22;2.92;;;18.80;98.20;;;;;;5037949;28;20028;-67
2021/06/28 02:23:54;;;;;;;3.00;2.58;;;18.70;98.20;;;;;;5037446;28;20064;-67
2021/06/28 02:26:19;;;;;;;3.42;3.10;;;18.70;98.30;;;;;;5037898;28;20043;-67
2021/06/28 02:28:48;;;;;;;3.67;2.75;;;18.70;98.30;;;;;;5037342;28;20109;-67
2021/06/28 02:31:19;;;;;;;4.17;3.37;;;18.70;98.30;;;;;;5033361;28;20036;-67
2021/06/28 02:33:45;;;;;;;3.40;2.92;;;18.70;98.30;;;;;;5037853;28;20018;-67
2021/06/28 02:36:12;;;;;;;3.58;2.97;;;18.60;98.30;;;;;;5036661;28;20489;-67
2021/06/28 02:38:39;;;;;;;3.45;3.15;;;18.60;98.40;;;;;;5036382;28;20109;-67
2021/06/28 02:41:05;;;;;;;3.10;2.80;;;18.50;98.40;;;;;;5036685;28;20029;-67
2021/06/28 02:43:31;;;;;;;3.15;2.45;;;18.50;98.40;;;;;;5035333;28;20069;-67
2021/06/28 02:45:56;;;;;;;3.33;2.60;;;18.50;98.40;;;;;;5034780;28;20066;-67
2021/06/28 02:48:22;;;;;;;3.00;2.60;;;18.50;98.50;;;;;;5032830;28;20470;-67
2021/06/28 02:50:48;;;;;;;3.72;3.00;;;18.40;98.40;;;;;;5038891;28;20041;-67
2021/06/28 02:53:16;;;;;;;2.60;2.35;;;18.40;98.40;;;;;;5036391;28;20018;-67
2021/06/28 02:55:47;;;;;;;3.15;2.58;;;18.30;98.50;;;;;;5036608;28;20017;-67
2021/06/28 02:58:14;;;;;;;4.13;3.20;;;18.30;98.50;;;;;;5035661;28;20021;-67
2021/06/28 03:00:40;;;;;;;3.00;2.70;;;18.30;98.60;;;;;;5033933;28;20029;-68
2021/06/28 03:03:05;;;;;;;3.42;3.13;;;18.30;98.60;;;;;;5034889;28;20033;-67
2021/06/28 03:05:31;;;;;;;3.75;3.22;;;18.20;98.60;;;;;;5034039;28;20456;-67
2021/06/28 03:07:57;;;;;;;4.00;3.03;;;18.20;98.60;;;;;;5038816;28;20096;-67
2021/06/28 03:10:23;;;;;;;4.75;3.33;;;18.20;98.60;;;;;;5035944;28;20036;-67
2021/06/28 03:12:49;;;;;;;6.80;3.78;;;18.10;98.60;;;;;;5035710;28;20044;-67
2021/06/28 03:15:16;;;;;;;4.03;3.25;;;18.20;98.70;;;;;;5034136;28;20021;-67
2021/06/28 03:17:43;;;;;;;4.28;3.75;;;18.20;98.70;;;;;;5033409;28;20432;-67
2021/06/28 03:20:11;;;;;;;3.92;3.47;;;18.10;98.70;;;;;;5036818;28;20048;-67
2021/06/28 03:22:39;;;;;;;4.00;3.47;;;18.10;98.70;;;;;;5039265;28;20477;-67
2021/06/28 03:25:09;;;;;;;5.78;3.95;;;18.10;98.70;;;;;;5038374;28;20032;-67
2021/06/28 03:27:34;;;;;;;4.45;3.40;;;18.10;98.70;;;;;;5034398;28;20017;-67
2021/06/28 03:30:00;;;;;;;3.75;3.30;;;18.10;98.70;;;;;;5035306;28;20109;-67
2021/06/28 03:32:25;;;;;;;4.13;3.63;;;18.10;98.70;;;;;;5036177;28;20017;-67
2021/06/28 03:34:51;;;;;;;3.08;2.63;;;18.00;98.70;;;;;;5035681;28;20024;-68
2021/06/28 03:37:17;;;;;;;4.93;3.13;;;18.00;98.70;;;;;;5037167;28;20100;-68
2021/06/28 03:39:43;;;;;;;3.55;3.25;;;18.00;98.70;;;;;;5033696;28;20461;-67
2021/06/28 03:42:08;;;;;;;4.13;3.72;;;18.00;98.70;;;;;;5034822;28;20052;-67
2021/06/28 03:44:34;;;;;;;4.95;4.45;;;18.00;98.80;;;;;;5034130;28;20492;-67
2021/06/28 03:47:00;;;;;;;5.55;4.50;;;18.00;98.80;;;;;;5033848;28;20396;-67
2021/06/28 03:49:25;;;;;;;5.80;4.50;;;17.90;98.80;;;;;;5035807;28;20074;-68
2021/06/28 03:51:50;;;;;;;4.72;4.32;;;18.00;98.90;;;;;;5034151;28;20029;-67
2021/06/28 03:54:16;;;;;;;4.65;4.15;;;17.90;98.90;;;;;;5036955;28;20117;-67
2021/06/28 03:56:41;;;;;;;4.80;4.40;;;18.00;99.00;;;;;;5033481;28;20013;-67
2021/06/28 03:59:07;;;;;;;4.50;4.10;;;18.00;99.00;;;;;;5035164;28;20028;-67
2021/06/28 04:01:34;;;;;;;4.15;3.42;;;18.00;99.00;;;;;;5033751;28;20036;-67
2021/06/28 04:03:59;;;;;;;5.88;4.13;;;18.00;99.10;;;;;;5033462;28;20030;-67
2021/06/28 04:06:25;;;;;;;6.63;4.72;;;18.00;99.10;;;;;;5035611;28;20067;-68
2021/06/28 04:08:50;;;;;;;5.70;4.80;;;18.00;99.10;;;;;;5035464;28;20489;-68
2021/06/28 04:11:19;;;;;;;5.28;4.78;;;17.90;99.10;;;;;;5035424;28;20094;-68
2021/06/28 04:13:45;;;;;;;5.28;4.78;;;17.90;99.10;;;;;;5033304;28;20028;-68
2021/06/28 04:16:12;;;;;;;5.00;4.50;;;17.90;99.20;;;;;;5034827;28;20026;-68
2021/06/28 04:18:38;;;;;;;5.88;5.18;;;18.00;99.20;;;;;;5033451;28;20036;-67
2021/06/28 04:21:03;;;;;;;6.53;5.90;;;17.90;99.20;;;;;;5033065;28;20485;-68
2021/06/28 04:23:29;;;;;;;6.43;5.82;;;18.00;99.30;;;;;;5035305;28;20025;-68
2021/06/28 04:25:55;;;;;;;7.25;5.70;;;18.00;99.40;;;;;;5035002;28;20413;-68
2021/06/28 04:28:20;;;;;;;5.30;4.80;;;18.00;99.40;;;;;;5036508;28;20029;-68
2021/06/28 04:30:46;;;;;;;5.28;4.78;;;18.00;99.40;;;;;;5031354;28;20017;-68
2021/06/28 04:33:12;;;;;;;6.32;4.60;;;18.00;99.50;;;;;;5035233;28;20021;-68
2021/06/28 04:35:37;;;;;;;5.43;4.45;;;18.10;99.50;;;;;;5036668;28;20021;-68
2021/06/28 04:38:03;;;;;;;8.40;5.38;;;18.10;99.50;;;;;;5034393;28;20024;-67
2021/06/28 04:40:30;;;;;;;4.97;4.47;;;18.20;99.50;;;;;;5033909;28;20021;-67
2021/06/28 04:42:55;;;;;;;4.57;4.15;;;18.30;99.60;;;;;;5033574;28;20052;-67
2021/06/28 04:45:23;;;;;;;4.53;4.07;;;18.30;99.50;;;;;;5033183;28;20095;-67
2021/06/28 04:47:50;;;;;;;5.70;5.20;;;18.40;99.60;;;;;;5031648;28;20041;-67
2021/06/28 04:50:17;;;;;;;5.75;5.15;;;18.40;99.60;;;;;;5035244;28;20017;-67
2021/06/28 04:52:43;;;;;;;6.97;6.28;;;18.50;99.60;;;;;;5036821;28;20024;-68
2021/06/28 04:55:11;;;;;;;7.32;6.63;;;18.50;99.60;;;;;;5034107;28;20489;-67
2021/06/28 04:57:37;;;;;;;6.18;5.57;;;18.50;99.70;;;;;;5033853;28;20025;-67
2021/06/28 05:00:05;;;;;;;5.72;5.18;;;18.50;99.70;;;;;;5033344;28;20432;-68
2021/06/28 05:02:30;;;;;;;6.18;5.57;;;18.60;99.70;;;;;;5033202;28;20029;-68
2021/06/28 05:04:56;;;;;;;7.05;6.22;;;18.60;99.80;;;;;;5030936;28;20029;-67
2021/06/28 05:07:21;;;;;;;6.90;6.20;;;18.60;99.90;;;;;;5034913;28;20025;-67
2021/06/28 05:09:47;;;;;;;7.07;6.45;;;18.70;99.90;;;;;;5036554;28;20542;-67
2021/06/28 05:12:14;;;;;;;9.05;8.15;;;18.70;99.90;;;;;;5033733;28;20474;-68
2021/06/28 05:14:40;;;;;;;7.80;7.00;;;18.80;99.90;;;;;;5034752;28;20053;-68
2021/06/28 05:17:07;;;;;;;10.60;9.20;;;18.80;99.90;;;;;;5041563;28;20057;-67
2021/06/28 05:19:33;;;;;;;8.60;7.80;;;18.80;99.90;;;;;;5053833;28;20119;-67
2021/06/28 05:21:59;;;;;;;8.73;7.93;;;18.80;99.90;;;;;;5062192;28;20111;-67
2021/06/28 05:24:24;;;;;;;8.65;7.75;;;18.80;99.90;;;;;;5072725;28;20032;-67
2021/06/28 05:26:51;;;;;;;9.20;8.30;;;18.90;99.90;;;;;;5071252;28;20020;-68
2021/06/28 05:29:17;;;;;;;10.00;8.80;;;18.90;99.90;;;;;;5072770;28;20025;-67
2021/06/28 05:31:42;;;;;;;10.40;8.68;;;18.90;99.90;;;;;;5072579;28;20469;-67
2021/06/28 05:34:08;;;;;;;9.10;8.20;;;18.90;99.90;;;;;;5072463;28;20021;-67
2021/06/28 05:36:34;;;;;;;8.52;7.70;;;19.00;99.90;;;;;;5072311;28;20024;-67
2021/06/28 05:39:00;;;;;;;9.00;8.10;;;19.00;99.90;;;;;;5072648;28;20016;-67
2021/06/28 05:41:25;;;;;;;8.73;7.93;;;19.00;99.90;;;;;;5069398;28;20063;-67
2021/06/28 05:43:51;;;;;;;9.27;8.32;;;19.00;99.90;;;;;;5060329;28;20098;-67
2021/06/28 05:46:17;;;;;;;9.38;8.57;;;19.10;99.90;;;;;;5052434;28;20082;-67
2021/06/28 05:48:42;;;;;;;10.00;9.00;;;19.20;99.90;;;;;;5052287;28;20029;-67
2021/06/28 05:51:08;;;;;;;9.65;8.73;;;19.20;99.90;;;;;;5052169;28;20492;-67
2021/06/28 05:53:34;;;;;;;9.43;8.48;;;19.20;99.90;;;;;;5052343;28;20031;-67
2021/06/28 05:56:00;;;;;;;10.48;9.38;;;19.20;99.90;;;;;;5052450;28;20017;-67
2021/06/28 05:58:28;;;;;;;10.43;9.43;;;19.30;99.90;;;;;;5052263;28;20377;-67
2021/06/28 06:00:55;;;;;;;10.55;9.55;;;19.30;99.90;;;;;;5050980;28;20025;-67
2021/06/28 06:03:20;;;;;;;9.73;8.73;;;19.30;99.90;;;;;;5052101;28;20025;-67
2021/06/28 06:05:46;;;;;;;9.15;8.27;;;19.30;99.90;;;;;;5054113;28;20043;-67
2021/06/28 06:08:12;;;;;;;10.18;9.02;;;19.40;99.90;;;;;;5054593;28;20496;-67
2021/06/28 06:10:37;;;;;;;8.70;7.80;;;19.40;99.90;;;;;;5055765;28;20431;-67
2021/06/28 06:13:03;;;;;;;10.00;8.20;;;19.50;99.90;;;;;;5054800;28;20032;-67
2021/06/28 06:15:29;;;;;;;9.23;8.32;;;19.50;99.90;;;;;;5058650;28;20032;-67
2021/06/28 06:17:54;;;;;;;9.20;8.13;;;19.60;99.90;;;;;;5057587;28;20473;-67
2021/06/28 06:20:20;;;;;;;10.02;8.93;;;19.60;99.90;;;;;;5055275;28;20623;-67
2021/06/28 06:22:45;;;;;;;9.35;8.35;;;19.70;99.90;;;;;;5055533;28;20025;-67
2021/06/28 06:25:11;;;;;;;8.02;7.22;;;19.70;99.90;;;;;;5055633;28;20366;-67
2021/06/28 06:27:38;;;;;;;9.68;8.57;;;19.70;99.90;;;;;;5055433;28;20045;-67
2021/06/28 06:30:06;;;;;;;8.48;7.68;;;19.80;99.90;;;;;;5054334;28;20435;-67
2021/06/28 06:32:31;;;;;;;9.48;8.52;;;19.80;99.90;;;;;;5055177;28;20025;-67
2021/06/28 06:34:57;;;;;;;9.95;8.90;;;19.90;99.90;;;;;;5054061;28;20480;-67
2021/06/28 06:37:22;;;;;;;9.88;8.90;;;19.90;99.90;;;;;;5055425;28;20100;-67
2021/06/28 06:39:48;;;;;;;9.30;8.30;;;20.00;99.90;;;;;;5055187;28;20060;-67
2021/06/28 06:42:14;;;;;;;10.52;9.43;;;20.00;99.90;;;;;;5054870;28;20033;-67
2021/06/28 06:44:39;;;;;;;9.25;8.32;;;20.00;99.90;;;;;;5054591;28;20082;-67
2021/06/28 06:47:05;;;;;;;11.07;9.98;;;20.10;99.90;;;;;;5037769;28;20045;-67
2021/06/28 06:49:30;;;;;;;9.55;8.65;;;20.20;99.90;;;;;;5035326;28;20497;-67
2021/06/28 06:51:56;;;;;;;9.95;8.95;;;20.20;99.90;;;;;;5050746;28;20071;-68
2021/06/28 06:54:21;;;;;;;10.00;9.00;;;20.30;99.90;;;;;;5053747;28;20013;-67
2021/06/28 06:56:47;;;;;;;9.73;8.55;;;20.30;99.90;;;;;;5054542;28;20021;-67
2021/06/28 06:59:12;;;;;;;10.63;9.52;;;20.40;99.90;;;;;;5054705;28;20121;-67
2021/06/28 07:01:40;;;;;;;12.02;10.38;;;20.40;99.90;;;;;;5054169;28;20048;-67
2021/06/28 07:04:06;;;;;;;12.52;10.60;;;20.50;99.90;;;;;;5054438;28;20032;-67
2021/06/28 07:06:32;;;;;;;13.13;11.82;;;20.60;99.90;;;;;;5054676;28;20025;-67
2021/06/28 07:08:57;;;;;;;12.57;11.27;;;20.60;99.90;;;;;;5054479;28;20029;-68
2021/06/28 07:11:25;;;;;;;13.95;12.48;;;20.60;99.90;;;;;;5054634;28;20031;-68
2021/06/28 07:13:51;;;;;;;14.80;11.48;;;20.70;99.90;;;;;;5053356;28;20524;-67
2021/06/28 07:16:18;;;;;;;12.32;11.00;;;20.70;99.90;;;;;;5051834;28;20025;-68
2021/06/28 07:18:45;;;;;;;11.23;10.13;;;20.80;99.90;;;;;;5054047;28;20025;-67
2021/06/28 07:21:10;;;;;;;10.95;9.68;;;20.90;99.90;;;;;;5053294;28;20505;-67
2021/06/28 07:23:36;;;;;;;9.98;8.98;;;21.00;99.90;;;;;;5054355;28;20075;-67
2021/06/28 07:26:03;;;;;;;13.20;11.90;;;21.00;99.90;;;;;;5054357;28;20389;-67
2021/06/28 07:28:29;;;;;;;12.52;11.25;;;21.10;99.90;;;;;;5054903;28;20104;-67
2021/06/28 07:30:57;;;;;;;13.50;11.23;;;21.10;99.70;;;;;;5054080;28;20029;-67
2021/06/28 07:33:27;;;;;;;14.05;12.55;;;21.20;99.60;;;;;;5054396;28;20028;-67
2021/06/28 07:35:53;;;;;;;12.23;10.93;;;21.20;99.50;;;;;;5054009;28;20017;-67
2021/06/28 07:38:19;;;;;;;11.75;10.57;;;21.30;99.40;;;;;;5054091;28;20464;-67
2021/06/28 07:40:44;;;;;;;11.65;10.30;;;21.40;99.40;;;;;;5054029;28;20029;-67
2021/06/28 07:43:10;;;;;;;11.48;10.38;;;21.50;99.30;;;;;;5053892;28;20029;-67
2021/06/28 07:45:35;;;;;;;10.35;9.35;;;21.60;99.20;;;;;;5053948;28;20418;-67
2021/06/28 07:48:02;;;;;;;10.25;9.02;;;21.70;99.10;;;;;;5054051;28;20029;-67
2021/06/28 07:50:29;;;;;;;10.38;9.27;;;21.70;99.00;;;;;;5053884;28;20055;-67
2021/06/28 07:52:55;;;;;;;9.00;8.13;;;21.80;98.90;;;;;;5053843;28;20020;-67
2021/06/28 07:55:21;;;;;;;12.38;8.77;;;21.90;98.80;;;;;;5052553;28;20024;-67
2021/06/28 07:57:47;;;;;;;9.55;8.23;;;22.00;98.70;;;;;;5053655;28;20017;-67
2021/06/28 08:00:16;;;;;;;10.55;9.45;;;22.10;98.50;;;;;;5053860;28;20021;-67
2021/06/28 08:02:46;;;;;;;8.20;7.40;;;22.10;98.50;;;;;;5052236;28;20025;-68
2021/06/28 08:05:12;;;;;;;;;;;22.20;98.40;;;;;;5054073;28;20053;-67
2021/06/28 08:07:37;;;;;;;11.05;9.95;;;22.30;98.40;;;;;;5053515;28;19905;-68
2021/06/28 08:10:06;;;;;;;10.15;8.88;;;22.30;98.40;;;;;;5053466;28;20067;-67
2021/06/28 08:12:32;;;;;;;14.20;10.20;;;22.40;98.10;;;;;;5053274;28;20021;-67
2021/06/28 08:14:58;;;;;;;10.95;9.85;;;22.50;98.00;;;;;;5053401;28;20086;-67
2021/06/28 08:17:23;;;;;;;9.25;8.35;;;22.50;97.70;;;;;;5052159;28;20021;-68
2021/06/28 08:19:49;;;;;;;8.23;7.40;;;22.60;97.80;;;;;;5053285;28;20044;-67
2021/06/28 08:22:16;;;;;;;7.20;6.53;;;22.70;97.50;;;;;;5053084;28;20025;-68
2021/06/28 08:24:41;;;;;;;6.82;6.13;;;22.80;97.50;;;;;;5052704;28;20029;-68
2021/06/28 08:27:07;;;;;;;7.63;6.57;;;22.90;97.20;;;;;;5052749;28;20385;-68
2021/06/28 08:29:33;;;;;;;7.25;5.97;;;23.00;97.00;;;;;;5052804;28;20044;-68
2021/06/28 08:31:58;;;;;;;7.30;6.55;;;23.00;96.80;;;;;;5053117;28;20098;-68
2021/06/28 08:34:24;;;;;;;10.15;9.15;;;23.20;96.70;;;;;;5053283;28;20028;-68
2021/06/28 08:36:51;;;;;;;11.98;8.98;;;23.20;96.10;;;;;;5051512;28;20021;-68
2021/06/28 08:39:17;;;;;;;8.43;6.70;;;23.20;95.80;;;;;;5053053;28;20041;-68
2021/06/28 08:41:49;;;;;;;7.88;7.18;;;23.30;95.80;;;;;;5053045;28;20036;-68
2021/06/28 08:44:15;;;;;;;7.68;6.93;;;23.50;95.60;;;;;;5051927;28;20029;-68
2021/06/28 08:46:42;;;;;;;10.63;9.63;;;23.70;95.40;;;;;;5052695;28;20397;-68
2021/06/28 08:49:09;;;;;;;9.20;8.30;;;23.90;94.70;;;;;;5053331;28;20377;-68
2021/06/28 08:51:35;;;;;;;7.32;6.63;;;24.00;94.40;;;;;;5052791;28;20021;-68
2021/06/28 08:54:07;;;;;;;7.35;6.53;;;24.20;94.40;;;;;;5051397;28;20031;-68
2021/06/28 08:56:33;;;;;;;7.43;6.63;;;24.40;94.10;;;;;;5051330;28;20444;-68
2021/06/28 08:58:59;;;;;;;6.57;5.97;;;24.50;93.90;;;;;;5052798;28;20043;-68
2021/06/28 09:01:25;;;;;;;5.28;4.78;;;24.60;93.80;;;;;;5052859;28;20451;-68
2021/06/28 09:03:51;;;;;;;6.57;5.88;;;24.60;93.60;;;;;;5052703;28;20021;-68
2021/06/28 09:06:23;;;;;;;8.02;6.90;;;24.80;93.60;;;;;;5052686;28;20031;-68
2021/06/28 09:08:57;;;;;;;6.60;6.00;;;24.90;93.40;;;;;;5052568;28;20059;-68
2021/06/28 09:11:23;;;;;;;6.50;5.90;;;25.00;93.30;;;;;;5052396;28;20151;-68
2021/06/28 09:13:50;;;;;;;7.68;6.93;;;25.20;93.20;;;;;;5052670;28;20067;-68
2021/06/28 09:16:25;;;;;;;7.68;6.80;;;25.30;92.80;;;;;;5052483;28;20024;-68
2021/06/28 09:18:56;;;;;;;6.15;5.35;;;25.40;92.50;;;;;;5052374;28;20497;-68
2021/06/28 09:21:38;;;;;;;6.47;5.88;;;25.50;92.50;;;;;;5052461;28;20043;-67
2021/06/28 09:24:06;;;;;;;6.40;5.80;;;25.60;92.10;;;;;;5052439;28;20044;-68
2021/06/28 09:26:37;;;;;;;5.82;5.18;;;25.60;91.90;;;;;;5051017;28;20112;-68
2021/06/28 09:29:07;;;;;;;6.03;5.47;;;25.70;91.70;;;;;;5052632;28;20017;-67
2021/06/28 09:31:38;;;;;;;6.32;5.72;;;25.70;91.50;;;;;;5052364;28;20477;-67
2021/06/28 09:34:10;;;;;;;6.75;6.10;;;25.60;91.50;;;;;;5052606;28;20032;-68
2021/06/28 09:36:43;;;;;;;6.45;5.85;;;25.60;91.80;;;;;;5051067;28;20025;-68
2021/06/28 09:39:21;;;;;;;6.63;6.00;;;25.60;91.50;;;;;;5051113;28;20380;-68
2021/06/28 09:41:47;;;;;;;6.75;5.43;;;25.70;91.50;;;;;;5054629;28;20029;-68
2021/06/28 09:44:13;;;;;;;6.22;5.45;;;25.70;91.50;;;;;;5056202;28;20518;-67
2021/06/28 09:46:38;;;;;;;5.85;5.28;;;25.80;91.40;;;;;;5056114;28;20039;-68
2021/06/28 09:49:05;;;;;;;6.97;6.28;;;25.80;91.30;;;;;;5054828;28;20541;-68
2021/06/28 09:51:33;;;;;;;6.47;5.88;;;25.80;91.20;;;;;;5056209;28;20108;-67
2021/06/28 09:54:08;;;;;;;6.43;5.72;;;25.80;91.10;;;;;;5055977;28;20091;-67
2021/06/28 09:56:47;;;;;;;6.85;6.22;;;25.90;90.90;;;;;;5055697;28;20013;-67
2021/06/28 09:59:30;;;;;;;5.20;4.70;;;25.90;90.90;;;;;;5054884;28;20025;-67
2021/06/28 10:02:37;;;;;;;6.03;5.43;;;25.90;90.80;;;;;;5056050;28;20033;-67
2021/06/28 10:05:32;;;;;;;5.95;5.45;;;25.90;90.70;;;;;;4994323;28;20117;-67
2021/06/28 10:07:51;;;;;;;5.80;5.23;;;25.90;90.80;;;;;;4993986;28;20034;-67
2021/06/28 10:10:16;;;;;;;7.22;6.53;;;25.90;90.80;;;;;;5033657;28;20587;-67
2021/06/28 10:12:46;;;;;;;6.63;5.97;;;25.90;90.60;;;;;;5055472;28;20025;-68
2021/06/28 10:15:17;;;;;;;7.82;6.50;;;25.90;90.40;;;;;;5054331;28;20540;-68
2021/06/28 10:17:44;;;;;;;6.32;5.72;;;25.90;90.60;;;;;;5053818;28;20235;-67
2021/06/28 10:20:13;;;;;;;6.35;5.75;;;25.90;90.30;;;;;;5055160;28;20056;-68
2021/06/28 10:22:41;;;;;;;5.85;5.25;;;25.80;90.30;;;;;;5055468;28;20032;-68
2021/06/28 10:25:09;;;;;;;6.88;5.47;;;25.80;90.40;;;;;;5055594;28;20021;-68
2021/06/28 10:27:35;;;;;;;5.65;5.07;;;25.80;90.70;;;;;;5054006;28;20563;-67
2021/06/28 10:30:05;;;;;;;6.20;5.60;;;25.80;90.40;;;;;;5055337;28;20111;-67
2021/06/28 10:32:31;;;;;;;6.63;5.38;;;25.80;90.40;;;;;;5055404;28;20025;-67
2021/06/28 10:34:57;;;;;;;5.90;5.40;;;25.70;90.40;;;;;;5053984;28;20446;-67
2021/06/28 10:37:49;;;;;;;6.93;6.32;;;25.70;90.50;;;;;;5057889;28;20099;-67
2021/06/28 10:40:24;;;;;;;6.38;5.57;;;25.70;90.40;;;;;;5055875;28;20072;-67
2021/06/28 10:42:52;;;;;;;6.95;6.25;;;25.50;90.60;;;;;;5054969;28;20021;-67
2021/06/28 10:45:38;;;;;;;6.80;5.80;;;25.50;90.70;;;;;;5055058;28;20021;-67
2021/06/28 10:48:21;;;;;;;7.28;6.57;;;25.40;90.60;;;;;;5062794;28;20028;-67
2021/06/28 10:51:07;;;;;;;8.25;6.70;;;25.40;90.70;;;;;;5061770;28;20032;-67
2021/06/28 10:53:32;;;;;;;8.40;6.40;;;25.40;90.70;;;;;;5051336;28;20477;-67
2021/06/28 10:59:01;;;;;;;6.72;6.07;;;25.30;90.80;;;;;;5061200;28;20423;-67
2021/06/28 11:01:36;;;;;;;7.05;5.85;;;25.30;90.90;;;;;;5046358;28;20125;-67
2021/06/28 11:04:12;;;;;;;6.47;5.85;;;25.30;90.90;;;;;;5041207;28;20045;-67
2021/06/28 11:06:59;;;;;;;7.25;6.35;;;25.30;90.90;;;;;;5043476;28;20088;-67
2021/06/28 11:09:50;;;;;;;7.38;6.10;;;25.20;90.90;;;;;;5042208;28;20025;-67
2021/06/28 11:12:21;;;;;;;6.10;5.30;;;25.20;91.00;;;;;;5045243;28;20553;-67
2021/06/28 11:14:57;;;;;;;5.78;5.20;;;25.10;91.10;;;;;;5052441;28;20024;-67
2021/06/28 11:17:48;;;;;;;6.75;5.88;;;25.10;91.10;;;;;;5070693;28;20024;-67
2021/06/28 11:20:21;;;;;;;6.13;5.55;;;25.10;91.10;;;;;;5074534;28;20045;-67
2021/06/28 11:22:49;;;;;;;6.85;6.20;;;25.10;91.20;;;;;;5073221;28;20024;-67
2021/06/28 11:25:18;;;;;;;6.85;5.75;;;25.00;91.30;;;;;;5074476;28;20036;-67
2021/06/28 11:27:58;;;;;;;7.18;5.88;;;25.10;91.30;;;;;;5073261;28;20074;-67
2021/06/28 11:30:25;;;;;;;6.60;5.60;;;25.10;91.40;;;;;;5074206;28;20501;-67
2021/06/28 11:33:07;;;;;;;6.20;5.60;;;25.00;91.30;;;;;;5072922;28;20086;-67
2021/06/28 11:35:34;;;;;;;6.60;6.00;;;25.10;91.40;;;;;;5056628;28;20025;-67
2021/06/28 11:38:35;;;;;;;6.45;5.85;;;25.00;91.40;;;;;;5074311;28;20021;-67
2021/06/28 11:41:13;;;;;;;6.88;6.18;;;25.00;91.40;;;;;;5071311;28;20045;-67
2021/06/28 11:43:43;;;;;;;7.00;6.30;;;25.00;91.50;;;;;;5072762;28;20034;-67
2021/06/28 11:46:14;;;;;;;6.88;5.80;;;25.00;91.60;;;;;;5072676;28;20028;-67
2021/06/28 11:48:48;;;;;;;6.38;5.60;;;25.00;91.60;;;;;;5072779;28;20388;-67
2021/06/28 11:51:33;;;;;;;6.35;5.75;;;25.00;91.60;;;;;;5072534;28;20114;-67
2021/06/28 11:54:03;;;;;;;6.43;5.82;;;25.00;91.50;;;;;;5073951;28;20012;-67
2021/06/28 11:56:35;;;;;;;5.47;4.97;;;25.00;91.60;;;;;;5073705;28;20386;-67
2021/06/28 11:59:21;;;;;;;7.13;6.53;;;25.00;91.60;;;;;;5073642;28;20035;-67
2021/06/28 12:01:51;;;;;;;8.02;7.30;;;25.10;91.50;;;;;;5073724;28;20064;-67
2021/06/28 12:04:21;;;;;;;8.10;7.30;;;25.00;91.40;;;;;;5073184;28;20070;-67
2021/06/28 12:06:48;;;;;;;6.30;5.68;;;25.00;91.30;;;;;;5073398;28;20531;-67
2021/06/28 12:09:15;;;;;;;7.03;6.30;;;25.00;91.30;;;;;;5072320;28;20420;-67
2021/06/28 12:11:57;;;;;;;6.53;5.93;;;25.00;91.30;;;;;;5073412;28;20559;-67
2021/06/28 12:14:31;;;;;;;5.85;5.28;;;25.10;91.20;;;;;;5073427;28;20028;-67
2021/06/28 12:16:59;;;;;;;6.55;5.95;;;25.10;91.10;;;;;;5065538;28;20500;-66
2021/06/28 12:19:24;;;;;;;6.40;5.80;;;25.10;91.10;;;;;;5053228;28;20128;-68
2021/06/28 12:21:50;;;;;;;5.55;5.05;;;25.10;91.00;;;;;;5053404;28;20100;-68
2021/06/28 12:24:18;;;;;;;7.10;6.32;;;25.20;90.90;;;;;;5053349;28;20036;-67
2021/06/28 12:27:04;;;;;;;5.63;5.13;;;25.20;90.90;;;;;;5053084;28;20028;-67
2021/06/28 12:29:38;;;;;;;6.82;6.13;;;25.30;90.70;;;;;;5051997;28;20025;-67
2021/06/28 12:32:08;;;;;;;7.15;6.05;;;25.30;90.70;;;;;;5053223;28;20033;-67
2021/06/28 12:34:34;;;;;;;7.50;6.78;;;25.50;90.70;;;;;;5053088;28;20017;-68
2021/06/28 12:37:01;;;;;;;6.97;6.28;;;25.50;90.60;;;;;;5056817;28;20020;-68
2021/06/28 12:39:28;;;;;;;6.75;6.05;;;25.60;90.60;;;;;;5054349;28;20465;-68
2021/06/28 12:42:08;;;;;;;6.63;5.95;;;25.60;90.60;;;;;;5052911;28;20071;-69
2021/06/28 12:44:33;;;;;;;6.15;5.57;;;25.60;90.60;;;;;;5052851;28;20025;-69
2021/06/28 12:46:59;;;;;;;6.90;6.30;;;25.70;90.60;;;;;;5054588;28;20028;-69
2021/06/28 12:49:25;;;;;;;7.32;6.53;;;25.70;90.60;;;;;;5062858;28;20028;-69
2021/06/28 12:51:50;;;;;;;7.47;6.78;;;25.70;90.60;;;;;;5055005;28;20067;-69
2021/06/28 12:54:27;;;;;;;7.10;6.40;;;25.70;90.80;;;;;;5045469;28;20442;-69